Time;durP1;ratioP1;P1;durP2;ratioP2;P2;SDS_P1;SDS_P2;PMS_P1;PMS_P2;Temp;Humidity;BMP_temperature;BMP_pressure;BME280_temperature;BME280_humidity;BME280_pressure;Samples;Min_cycle;Max_cycle;Signal;HPM_P1;HPM_P2
2022/08/08 00:00:11;;;;;;;2.50;1.57;;;22.60;51.20;;;;;;4959387;29;20484;-86
2022/08/08 00:03:23;;;;;;;1.77;1.67;;;22.60;51.30;;;;;;4961205;29;20469;-88
2022/08/08 00:06:15;;;;;;;1.60;1.50;;;22.50;51.60;;;;;;4957149;28;20584;-87
2022/08/08 00:08:51;;;;;;;2.00;1.80;;;22.40;51.70;;;;;;4955163;29;20449;-87
2022/08/08 00:11:19;;;;;;;1.73;1.43;;;22.40;51.90;;;;;;4974264;28;20541;-86
2022/08/08 00:14:08;;;;;;;1.97;1.87;;;22.30;52.20;;;;;;4959233;29;20587;-88
2022/08/08 00:16:58;;;;;;;2.20;2.00;;;22.30;52.20;;;;;;4968204;29;20762;-87
2022/08/08 00:19:41;;;;;;;1.80;1.70;;;22.30;52.40;;;;;;4963379;29;20432;-87
2022/08/08 00:22:31;;;;;;;1.63;1.53;;;22.20;52.50;;;;;;4962080;29;20544;-87
2022/08/08 00:25:06;;;;;;;2.10;1.90;;;22.20;52.70;;;;;;4941716;29;20449;-85
2022/08/08 00:27:36;;;;;;;2.40;2.20;;;22.20;52.80;;;;;;4946020;28;20457;-85
2022/08/08 00:30:09;;;;;;;2.23;2.00;;;22.40;52.70;;;;;;4963093;28;20441;-87
2022/08/08 00:32:49;;;;;;;3.13;1.80;;;22.20;52.70;;;;;;4955208;28;20482;-91
2022/08/08 00:35:51;;;;;;;2.93;2.03;;;22.10;53.00;;;;;;4971601;28;20457;-89
2022/08/08 00:38:46;;;;;;;2.03;1.93;;;22.10;53.00;;;;;;4957637;29;20481;-91
2022/08/08 00:41:45;;;;;;;2.50;2.20;;;22.10;53.30;;;;;;4958569;29;20500;-87
2022/08/08 00:44:42;;;;;;;2.60;2.10;;;22.00;53.40;;;;;;4942074;29;20449;-86
2022/08/08 00:47:28;;;;;;;2.83;2.20;;;22.00;53.70;;;;;;4952957;29;20858;-87
2022/08/08 00:50:08;;;;;;;2.33;2.13;;;22.00;53.90;;;;;;4962140;28;20457;-86
2022/08/08 00:53:12;;;;;;;3.80;1.80;;;21.90;53.90;;;;;;4962129;29;20528;-86
2022/08/08 00:56:26;;;;;;;4.93;2.37;;;22.00;54.00;;;;;;4963200;29;20535;-86
2022/08/08 00:59:33;;;;;;;3.33;1.90;;;21.90;54.10;;;;;;4898299;29;20479;-87
2022/08/08 01:02:29;;;;;;;2.80;1.97;;;21.90;54.40;;;;;;4901009;29;20953;-88
2022/08/08 01:05:41;;;;;;;2.43;2.20;;;21.90;54.40;;;;;;4962687;29;20448;-87
2022/08/08 01:09:02;;;;;;;2.37;2.17;;;21.80;54.60;;;;;;4960374;29;20951;-87
2022/08/08 01:12:24;;;;;;;2.70;2.47;;;21.80;54.80;;;;;;4943379;29;20442;-86
2022/08/08 01:15:13;;;;;;;2.83;2.30;;;21.70;55.00;;;;;;4935020;29;20453;-87
2022/08/08 01:18:12;;;;;;;2.70;2.17;;;21.80;55.20;;;;;;4957818;29;20458;-88
2022/08/08 01:21:10;;;;;;;2.53;2.33;;;21.70;55.30;;;;;;4938801;29;20482;-89
2022/08/08 01:24:06;;;;;;;2.40;2.20;;;21.60;55.60;;;;;;4971245;28;20485;-90
2022/08/08 01:27:17;;;;;;;2.30;2.10;;;21.50;55.80;;;;;;4961328;28;20448;-88
2022/08/08 01:30:32;;;;;;;2.53;2.33;;;21.40;56.00;;;;;;4972547;28;20509;-86
2022/08/08 01:33:30;;;;;;;2.60;2.40;;;21.50;56.30;;;;;;4978502;28;20483;-89
2022/08/08 01:36:39;;;;;;;3.20;2.10;;;21.40;56.20;;;;;;4977924;28;20484;-90
2022/08/08 01:39:52;;;;;;;2.63;2.13;;;21.40;56.50;;;;;;4968930;29;20452;-86
2022/08/08 01:42:22;;;;;;;3.00;2.30;;;21.40;56.40;;;;;;4954462;29;20476;-90
2022/08/08 01:45:12;;;;;;;2.70;2.20;;;21.30;56.60;;;;;;4977677;28;20492;-88
2022/08/08 01:47:56;;;;;;;2.67;2.47;;;21.30;56.90;;;;;;4948274;29;20536;-89
2022/08/08 01:51:06;;;;;;;3.00;2.60;;;21.30;56.90;;;;;;4955063;28;20481;-88
2022/08/08 01:54:05;;;;;;;2.50;2.00;;;21.30;56.90;;;;;;4962112;29;20483;-88
2022/08/08 01:57:02;;;;;;;2.50;2.30;;;21.30;57.20;;;;;;4955068;29;20643;-89
2022/08/08 01:59:41;;;;;;;2.87;2.60;;;21.30;57.30;;;;;;4957201;28;20477;-89
2022/08/08 02:03:22;;;;;;;3.10;2.00;;;21.20;57.40;;;;;;4961339;28;20557;-87
2022/08/08 02:06:38;;;;;;;2.47;2.27;;;21.20;57.60;;;;;;4926552;29;20453;-89
2022/08/08 02:09:34;;;;;;;2.53;2.27;;;21.20;57.80;;;;;;4939853;29;20479;-89
2022/08/08 02:12:57;;;;;;;5.37;2.67;;;21.20;58.00;;;;;;4945358;29;20484;-85
2022/08/08 02:15:42;;;;;;;2.57;2.37;;;21.20;57.80;;;;;;4874021;29;20547;-88
2022/08/08 02:18:21;;;;;;;3.27;2.33;;;21.10;58.00;;;;;;4944047;29;20452;-88
2022/08/08 02:24:14;;;;;;;2.40;2.20;;;21.00;58.40;;;;;;4963757;29;20496;-86
2022/08/08 02:27:02;;;;;;;3.03;2.50;;;21.00;58.90;;;;;;4942924;29;20488;-86
2022/08/08 02:30:01;;;;;;;2.70;2.50;;;20.70;59.30;;;;;;4957421;29;20453;-87
2022/08/08 02:32:42;;;;;;;2.37;2.10;;;20.60;59.90;;;;;;4944431;29;20486;-87
2022/08/08 02:35:30;;;;;;;2.50;2.23;;;20.60;60.10;;;;;;4952282;29;20479;-88
2022/08/08 02:38:15;;;;;;;2.63;2.43;;;20.70;60.10;;;;;;4956969;29;20453;-87
2022/08/08 02:41:00;;;;;;;2.90;2.70;;;20.60;60.80;;;;;;4945125;29;20488;-87
2022/08/08 02:43:51;;;;;;;41.80;37.97;;;20.40;61.30;;;;;;4943541;29;20484;-87
2022/08/08 02:47:17;;;;;;;2.50;2.30;;;20.20;62.30;;;;;;4953529;29;20791;-88
2022/08/08 02:49:56;;;;;;;2.97;2.77;;;20.30;62.90;;;;;;4927900;29;20451;-88
2022/08/08 02:53:10;;;;;;;4.60;2.50;;;20.30;63.60;;;;;;4963256;29;20472;-87
2022/08/08 02:56:00;;;;;;;2.47;2.27;;;20.40;63.30;;;;;;4923906;29;20985;-87
2022/08/08 02:58:50;;;;;;;2.50;2.30;;;20.30;63.20;;;;;;4943810;29;20516;-87
2022/08/08 03:01:36;;;;;;;2.87;2.30;;;20.30;64.20;;;;;;4953646;29;20473;-87
2022/08/08 03:04:24;;;;;;;2.57;2.20;;;20.20;64.50;;;;;;4961083;29;20520;-88
2022/08/08 03:07:23;;;;;;;2.40;2.20;;;20.10;64.70;;;;;;4955447;28;20434;-88
2022/08/08 03:10:11;;;;;;;3.80;2.60;;;20.10;65.20;;;;;;4960490;29;20464;-87
2022/08/08 03:13:08;;;;;;;3.30;2.40;;;20.10;65.50;;;;;;4959175;29;20559;-87
2022/08/08 03:16:15;;;;;;;3.00;2.13;;;20.00;65.70;;;;;;4947168;29;20522;-89
2022/08/08 03:18:55;;;;;;;3.07;2.60;;;20.00;66.50;;;;;;4945980;29;20535;-88
2022/08/08 03:21:22;;;;;;;2.20;2.10;;;20.00;66.80;;;;;;4947630;29;20491;-85
2022/08/08 03:23:52;;;;;;;2.27;2.13;;;20.00;67.00;;;;;;4963683;29;20555;-88
2022/08/08 03:26:31;;;;;;;2.80;2.60;;;20.00;67.10;;;;;;4963214;28;20457;-86
2022/08/08 03:29:11;;;;;;;2.63;2.43;;;19.90;67.70;;;;;;4960135;28;20457;-88
2022/08/08 03:34:32;;;;;;;2.80;2.60;;;19.90;68.50;;;;;;4959807;29;20775;-88
2022/08/08 03:37:00;;;;;;;3.30;2.80;;;20.00;68.70;;;;;;4951708;28;20475;-88
2022/08/08 03:39:27;;;;;;;2.97;2.67;;;20.00;68.80;;;;;;4961945;29;20492;-87
2022/08/08 03:41:54;;;;;;;2.83;2.33;;;20.10;68.90;;;;;;4960527;29;20488;-88
2022/08/08 03:44:39;;;;;;;2.57;2.37;;;20.10;68.70;;;;;;4944408;29;20529;-86
2022/08/08 03:47:06;;;;;;;2.60;2.40;;;20.10;69.10;;;;;;4957543;29;20461;-87
2022/08/08 03:49:40;;;;;;;3.10;2.83;;;20.00;69.20;;;;;;4966830;28;20551;-87
2022/08/08 03:52:29;;;;;;;2.77;2.57;;;20.00;69.60;;;;;;4960999;28;20480;-87
2022/08/08 03:54:56;;;;;;;4.27;2.80;;;20.10;70.00;;;;;;4965821;29;20464;-89
2022/08/08 03:57:28;;;;;;;2.67;2.47;;;20.00;70.00;;;;;;4955263;29;20547;-89
2022/08/08 04:00:21;;;;;;;2.83;2.50;;;20.00;70.30;;;;;;4957029;29;20500;-88
2022/08/08 04:02:57;;;;;;;2.50;2.30;;;20.00;70.40;;;;;;4961297;29;20569;-87
2022/08/08 04:05:27;;;;;;;3.27;2.97;;;20.10;70.90;;;;;;4960921;29;20524;-86
2022/08/08 04:07:56;;;;;;;3.20;2.90;;;20.00;72.00;;;;;;4946975;29;20489;-86
2022/08/08 04:10:23;;;;;;;2.93;2.63;;;20.00;71.60;;;;;;4958363;29;20454;-87
2022/08/08 04:12:50;;;;;;;4.67;3.00;;;19.90;71.70;;;;;;4957022;28;20503;-85
2022/08/08 04:15:20;;;;;;;4.20;2.70;;;19.90;72.10;;;;;;4970540;28;20508;-88
2022/08/08 04:17:48;;;;;;;2.90;2.70;;;19.90;72.50;;;;;;4961433;29;20997;-88
2022/08/08 04:20:24;;;;;;;3.27;2.97;;;19.80;72.90;;;;;;4942835;29;20476;-87
2022/08/08 04:22:54;;;;;;;3.73;2.70;;;19.70;73.20;;;;;;4965353;28;20504;-87
2022/08/08 04:25:23;;;;;;;4.53;3.07;;;19.80;73.80;;;;;;4961552;28;20823;-86
2022/08/08 04:27:53;;;;;;;3.60;2.80;;;19.80;73.90;;;;;;4960091;29;20526;-89
2022/08/08 04:30:29;;;;;;;3.43;2.50;;;19.80;74.10;;;;;;4974488;28;20468;-86
2022/08/08 04:33:02;;;;;;;6.97;3.70;;;19.90;74.00;;;;;;4968903;28;20556;-86
2022/08/08 04:35:37;;;;;;;3.63;3.10;;;19.90;74.00;;;;;;4945335;29;21295;-90
2022/08/08 04:38:06;;;;;;;2.90;2.70;;;19.90;74.30;;;;;;4946972;29;20471;-87
2022/08/08 04:40:35;;;;;;;3.13;2.83;;;20.00;73.60;;;;;;4947534;29;20449;-88
2022/08/08 04:43:04;;;;;;;3.50;3.10;;;19.80;74.50;;;;;;4964349;29;20484;-87
2022/08/08 04:45:31;;;;;;;3.83;3.00;;;20.10;74.20;;;;;;4959574;29;20467;-87
2022/08/08 04:47:59;;;;;;;3.63;3.10;;;19.90;74.40;;;;;;4962336;28;20516;-89
2022/08/08 04:50:29;;;;;;;3.10;2.80;;;19.70;75.30;;;;;;4961344;29;20476;-86
2022/08/08 04:53:14;;;;;;;3.60;3.27;;;19.70;76.10;;;;;;4939909;29;20531;-84
2022/08/08 04:56:16;;;;;;;3.47;3.10;;;19.70;76.40;;;;;;4946447;29;20441;-83
2022/08/08 04:58:58;;;;;;;3.40;3.10;;;19.70;76.90;;;;;;4947973;29;20531;-82
2022/08/08 05:01:33;;;;;;;3.40;2.60;;;19.50;77.30;;;;;;4951815;29;20508;-84
2022/08/08 05:04:14;;;;;;;4.23;3.83;;;19.60;77.90;;;;;;4958770;29;20476;-83
2022/08/08 05:06:53;;;;;;;5.40;4.67;;;19.70;77.90;;;;;;4959149;29;20975;-86
2022/08/08 05:09:25;;;;;;;3.70;3.40;;;19.70;78.10;;;;;;4943326;29;20573;-83
2022/08/08 05:12:05;;;;;;;4.07;3.40;;;19.70;78.20;;;;;;4955165;28;20466;-85
2022/08/08 05:14:50;;;;;;;3.70;3.40;;;19.70;78.30;;;;;;4941547;29;20513;-83
2022/08/08 05:17:22;;;;;;;3.87;3.47;;;19.90;78.10;;;;;;4957904;29;20527;-83
2022/08/08 05:19:48;;;;;;;3.80;3.50;;;19.80;77.60;;;;;;4959872;29;20524;-84
2022/08/08 05:22:30;;;;;;;3.67;3.30;;;19.70;78.30;;;;;;4933374;29;20508;-84
2022/08/08 05:24:58;;;;;;;3.90;3.23;;;19.60;78.80;;;;;;4947464;28;20473;-85
2022/08/08 05:27:32;;;;;;;4.70;3.93;;;19.50;79.40;;;;;;4957354;29;20462;-85
2022/08/08 05:30:12;;;;;;;4.40;3.80;;;19.30;80.50;;;;;;4953836;29;20453;-85
2022/08/08 05:33:03;;;;;;;3.87;3.47;;;19.30;81.30;;;;;;4956529;29;20520;-83
2022/08/08 05:35:41;;;;;;;5.80;3.27;;;19.40;81.50;;;;;;4949481;28;20461;-83
2022/08/08 05:38:17;;;;;;;3.93;3.60;;;19.40;81.20;;;;;;4955303;29;20473;-84
2022/08/08 05:41:02;;;;;;;3.83;3.47;;;19.40;82.10;;;;;;4944138;29;20448;-85
2022/08/08 05:43:33;;;;;;;4.50;3.60;;;19.50;81.60;;;;;;4950139;29;20505;-83
2022/08/08 05:46:21;;;;;;;3.73;3.43;;;19.50;81.40;;;;;;4939832;29;20931;-83
2022/08/08 05:48:53;;;;;;;4.20;3.80;;;19.60;81.10;;;;;;4953519;29;20884;-83
2022/08/08 05:51:23;;;;;;;4.03;3.63;;;19.70;81.00;;;;;;4943879;28;20557;-81
2022/08/08 05:53:50;;;;;;;4.37;3.90;;;19.90;80.00;;;;;;4960290;28;20784;-84
2022/08/08 05:56:22;;;;;;;6.20;4.10;;;19.60;80.50;;;;;;4958001;29;20501;-83
2022/08/08 05:59:03;;;;;;;6.00;4.83;;;19.50;80.90;;;;;;4956390;28;22620;-85
2022/08/08 06:01:53;;;;;;;4.17;3.77;;;19.40;81.30;;;;;;4963672;28;20485;-86
2022/08/08 06:04:26;;;;;;;5.33;4.10;;;19.50;81.60;;;;;;4958056;28;20540;-85
2022/08/08 06:06:58;;;;;;;5.70;3.90;;;19.60;81.40;;;;;;4956795;28;20461;-85
2022/08/08 06:09:31;;;;;;;4.27;3.60;;;19.60;81.10;;;;;;4958017;29;20473;-84
2022/08/08 06:12:08;;;;;;;4.67;4.27;;;19.70;81.00;;;;;;4959629;28;21021;-84
2022/08/08 06:14:34;;;;;;;7.27;4.07;;;19.80;80.70;;;;;;4959349;29;20476;-85
2022/08/08 06:17:03;;;;;;;4.90;3.80;;;20.20;80.00;;;;;;4959994;28;20505;-84
2022/08/08 06:19:31;;;;;;;5.50;3.83;;;20.50;77.80;;;;;;4965225;28;20454;-83
2022/08/08 06:22:00;;;;;;;4.77;4.17;;;20.40;77.40;;;;;;4943547;29;20508;-82
2022/08/08 06:24:49;;;;;;;5.30;4.20;;;20.40;77.60;;;;;;4960622;29;20436;-84
2022/08/08 06:27:31;;;;;;;4.27;3.70;;;20.70;76.90;;;;;;4961245;29;20500;-83
2022/08/08 06:30:06;;;;;;;5.80;4.50;;;20.90;75.50;;;;;;4941276;29;20457;-83
2022/08/08 06:32:43;;;;;;;6.40;5.30;;;20.80;75.80;;;;;;4969579;28;20463;-85
2022/08/08 06:35:25;;;;;;;4.20;3.80;;;21.50;74.90;;;;;;4975997;29;20520;-85
2022/08/08 06:38:26;;;;;;;5.73;4.53;;;22.00;70.70;;;;;;4962787;29;20425;-85
2022/08/08 06:41:11;;;;;;;4.60;4.10;;;22.10;70.00;;;;;;4977061;28;20463;-85
2022/08/08 06:43:58;;;;;;;4.47;3.77;;;21.90;70.30;;;;;;4973919;28;20473;-86
2022/08/08 06:46:36;;;;;;;4.00;3.70;;;21.90;70.20;;;;;;4971303;28;20449;-84
2022/08/08 06:49:42;;;;;;;4.37;3.70;;;21.90;70.30;;;;;;4963573;28;20461;-84
2022/08/08 06:52:21;;;;;;;4.53;4.10;;;21.80;69.80;;;;;;4954005;29;20479;-81
2022/08/08 06:54:48;;;;;;;4.93;4.37;;;21.90;69.00;;;;;;4957240;29;20457;-84
2022/08/08 06:57:26;;;;;;;7.23;5.10;;;21.80;69.80;;;;;;4969421;28;20456;-82
2022/08/08 07:00:10;;;;;;;5.00;4.10;;;21.70;70.30;;;;;;4954412;29;20464;-84
2022/08/08 07:02:44;;;;;;;5.27;4.37;;;21.70;70.60;;;;;;4968620;28;20579;-82
2022/08/08 07:05:18;;;;;;;5.00;3.17;;;21.80;68.60;;;;;;4963158;29;20456;-84
2022/08/08 07:08:04;;;;;;;3.60;3.30;;;22.00;66.80;;;;;;4957070;29;20460;-84
2022/08/08 07:10:54;;;;;;;5.77;5.10;;;22.20;66.00;;;;;;4972196;28;20535;-82
2022/08/08 07:13:25;;;;;;;3.47;3.17;;;22.30;65.10;;;;;;4944411;28;20485;-86
2022/08/08 07:16:06;;;;;;;4.13;3.73;;;22.30;64.50;;;;;;4963377;28;20503;-84
2022/08/08 07:18:53;;;;;;;4.50;3.20;;;22.60;64.10;;;;;;4964967;28;20471;-85
2022/08/08 07:21:28;;;;;;;3.47;3.13;;;22.50;64.80;;;;;;4950599;29;20455;-85
2022/08/08 07:24:14;;;;;;;4.97;3.60;;;22.80;64.80;;;;;;4945764;29;20494;-85
2022/08/08 07:26:46;;;;;;;3.67;3.37;;;22.80;63.70;;;;;;4957122;29;20570;-84
2022/08/08 07:29:36;;;;;;;3.27;2.87;;;23.20;62.50;;;;;;4956590;29;20543;-85
2022/08/08 07:32:34;;;;;;;3.37;3.07;;;23.40;61.50;;;;;;4958975;28;20464;-84
2022/08/08 07:35:14;;;;;;;6.87;3.90;;;23.60;60.10;;;;;;4963464;29;20463;-84
2022/08/08 07:38:27;;;;;;;4.70;3.27;;;23.60;60.00;;;;;;4949892;29;20481;-85
2022/08/08 07:40:59;;;;;;;5.67;5.07;;;24.10;60.40;;;;;;4947315;29;20488;-85
2022/08/08 07:43:41;;;;;;;3.80;3.50;;;24.60;58.80;;;;;;4962878;28;20539;-85
2022/08/08 07:46:22;;;;;;;5.33;3.97;;;25.40;56.90;;;;;;4961111;29;20484;-83
2022/08/08 07:48:59;;;;;;;4.13;3.63;;;27.30;53.20;;;;;;4945717;29;20852;-85
2022/08/08 07:51:35;;;;;;;4.50;3.70;;;30.30;47.40;;;;;;4956560;29;20456;-85
2022/08/08 07:54:41;;;;;;;7.13;4.27;;;32.70;42.80;;;;;;4957581;29;20674;-85
2022/08/08 07:57:28;;;;;;;7.50;4.13;;;33.70;40.30;;;;;;4947494;29;20535;-85
2022/08/08 08:00:11;;;;;;;3.80;3.20;;;35.40;37.10;;;;;;4954877;28;20505;-85
2022/08/08 08:03:00;;;;;;;3.60;3.30;;;36.20;35.90;;;;;;4957408;28;20499;-86
2022/08/08 08:05:46;;;;;;;4.30;3.90;;;36.60;34.00;;;;;;4952792;28;20465;-85
2022/08/08 08:08:19;;;;;;;3.43;3.13;;;36.20;33.70;;;;;;4957127;29;20512;-86
2022/08/08 08:10:50;;;;;;;3.30;3.00;;;37.00;33.00;;;;;;4960725;28;20465;-85
2022/08/08 08:13:54;;;;;;;3.37;3.17;;;36.30;33.00;;;;;;5031659;23;20490;-85
2022/08/08 08:16:38;;;;;;;3.30;2.87;;;35.50;33.40;;;;;;5015130;28;20868;-86
2022/08/08 08:19:12;;;;;;;3.17;2.87;;;34.50;34.70;;;;;;5015761;28;20492;-84
2022/08/08 08:21:49;;;;;;;7.97;3.40;;;34.40;34.80;;;;;;4999434;28;20455;-83
2022/08/08 08:24:21;;;;;;;4.07;3.67;;;34.90;34.60;;;;;;5000646;28;20602;-85
2022/08/08 08:26:53;;;;;;;3.13;2.83;;;34.60;34.20;;;;;;4994011;28;20485;-84
2022/08/08 08:29:28;;;;;;;3.33;3.00;;;34.50;34.50;;;;;;4993314;28;20504;-84
2022/08/08 08:32:02;;;;;;;2.57;2.37;;;35.60;33.80;;;;;;4998287;28;20454;-85
2022/08/08 08:34:39;;;;;;;3.20;2.87;;;36.20;32.40;;;;;;4980819;28;20459;-85
2022/08/08 08:37:18;;;;;;;3.40;2.77;;;35.70;32.50;;;;;;4992484;28;20434;-85
2022/08/08 08:39:46;;;;;;;3.80;2.40;;;36.50;31.80;;;;;;5010096;28;20462;-86
2022/08/08 08:45:15;;;;;;;3.47;2.70;;;37.50;30.10;;;;;;1361461;26;20473;-86
2022/08/08 08:47:52;;;;;;;2.80;2.27;;;36.50;30.70;;;;;;5016512;28;20525;-86
2022/08/08 08:50:22;;;;;;;2.50;2.30;;;36.30;31.50;;;;;;4994519;28;20558;-87
2022/08/08 08:53:03;;;;;;;2.57;2.40;;;36.80;31.00;;;;;;4984799;28;20518;-87
2022/08/08 08:55:55;;;;;;;2.70;2.40;;;38.30;29.70;;;;;;4984138;28;20525;-86
2022/08/08 08:59:03;;;;;;;3.60;2.63;;;38.60;29.10;;;;;;5005114;28;20465;-86
2022/08/08 09:01:34;;;;;;;2.37;2.20;;;38.70;28.30;;;;;;4924516;29;20991;-88
2022/08/08 09:04:12;;;;;;;2.27;2.07;;;38.40;28.40;;;;;;4993106;28;20536;-88
2022/08/08 09:06:58;;;;;;;2.57;2.10;;;37.50;28.50;;;;;;5001715;28;20445;-86
2022/08/08 09:09:45;;;;;;;2.53;2.33;;;36.50;29.30;;;;;;4996643;28;20462;-90
2022/08/08 09:12:26;;;;;;;1.90;1.80;;;37.40;28.90;;;;;;5000786;28;20478;-88
2022/08/08 09:14:57;;;;;;;2.57;1.90;;;36.40;28.60;;;;;;4979698;28;20478;-90
2022/08/08 09:17:35;;;;;;;4.03;2.57;;;36.20;29.40;;;;;;4994604;28;20462;-91
2022/08/08 09:20:15;;;;;;;3.07;2.33;;;36.70;29.30;;;;;;4998574;28;20207;-90
2022/08/08 09:23:04;;;;;;;2.07;1.97;;;36.40;29.10;;;;;;5007637;28;20223;-91
2022/08/08 09:25:55;;;;;;;4.03;2.33;;;36.00;29.30;;;;;;4999389;28;20249;-87
2022/08/08 09:28:30;;;;;;;3.20;2.10;;;35.60;29.80;;;;;;4993862;28;20382;-87
2022/08/08 09:31:17;;;;;;;2.00;1.90;;;35.00;30.00;;;;;;4989628;28;20650;-87
2022/08/08 09:33:54;;;;;;;2.20;2.07;;;35.00;30.30;;;;;;4980463;28;20282;-88
2022/08/08 09:37:03;;;;;;;2.07;1.87;;;35.90;29.50;;;;;;5004993;28;20648;-87
2022/08/08 09:40:12;;;;;;;2.10;2.00;;;37.20;27.80;;;;;;4989484;28;20525;-87
2022/08/08 09:42:43;;;;;;;2.30;2.10;;;36.60;28.70;;;;;;5004859;28;20479;-87
2022/08/08 09:45:39;;;;;;;2.90;2.07;;;36.70;28.30;;;;;;5004484;28;21353;-87
2022/08/08 09:48:23;;;;;;;3.57;1.93;;;36.00;28.50;;;;;;4982818;28;20465;-86
2022/08/08 09:51:02;;;;;;;4.63;1.80;;;35.80;29.00;;;;;;4987504;28;20199;-86
2022/08/08 09:53:55;;;;;;;1.80;1.70;;;36.50;28.90;;;;;;5002618;28;20242;-87
2022/08/08 09:56:36;;;;;;;2.20;1.67;;;36.60;28.10;;;;;;4981736;28;20451;-88
2022/08/08 09:59:10;;;;;;;1.83;1.70;;;37.70;26.60;;;;;;4974349;28;20482;-85
2022/08/08 10:02:02;;;;;;;2.20;1.80;;;37.10;27.00;;;;;;4986701;28;20822;-87
2022/08/08 10:04:39;;;;;;;1.70;1.60;;;36.90;27.50;;;;;;4986878;28;20454;-88
2022/08/08 10:07:15;;;;;;;1.63;1.53;;;36.40;27.70;;;;;;4988964;28;20450;-87
2022/08/08 10:09:48;;;;;;;2.97;1.77;;;36.10;27.90;;;;;;4987426;28;20525;-87
2022/08/08 10:12:41;;;;;;;1.73;1.63;;;36.70;27.90;;;;;;5000111;28;20999;-87
2022/08/08 10:15:32;;;;;;;2.13;2.03;;;36.70;27.10;;;;;;4973198;28;20465;-88
2022/08/08 10:18:23;;;;;;;1.90;1.80;;;36.80;27.20;;;;;;4986436;28;21119;-86
2022/08/08 10:21:01;;;;;;;1.87;1.70;;;37.70;26.50;;;;;;5003676;28;20461;-89
2022/08/08 10:23:39;;;;;;;3.70;1.90;;;37.20;26.50;;;;;;4980810;28;20483;-85
2022/08/08 10:26:19;;;;;;;2.70;1.90;;;36.70;26.60;;;;;;5009210;28;20454;-88
2022/08/08 10:29:04;;;;;;;3.93;1.87;;;36.40;26.80;;;;;;4986088;28;20505;-90
2022/08/08 10:34:30;;;;;;;2.20;1.80;;;35.30;28.00;;;;;;4989117;28;20520;-88
2022/08/08 10:37:05;;;;;;;3.43;3.13;;;34.50;28.80;;;;;;4986706;28;20455;-87
2022/08/08 10:39:45;;;;;;;2.00;1.80;;;34.70;29.00;;;;;;4988105;28;20497;-88
2022/08/08 10:42:23;;;;;;;2.07;1.83;;;34.90;29.00;;;;;;4975848;28;20478;-87
2022/08/08 10:45:03;;;;;;;1.93;1.80;;;35.10;28.60;;;;;;4969467;28;20461;-87
2022/08/08 10:47:38;;;;;;;1.80;1.70;;;34.60;28.70;;;;;;4985468;28;20636;-87
2022/08/08 10:50:36;;;;;;;1.63;1.53;;;34.30;29.00;;;;;;4987692;28;20451;-88
2022/08/08 10:53:22;;;;;;;1.50;1.40;;;34.40;29.00;;;;;;4988251;28;20454;-86
2022/08/08 10:56:04;;;;;;;3.00;2.33;;;35.30;28.20;;;;;;5007097;28;20877;-87
2022/08/08 10:58:37;;;;;;;1.87;1.50;;;35.90;27.40;;;;;;4992809;28;20458;-87
2022/08/08 11:01:23;;;;;;;1.80;1.70;;;35.80;27.30;;;;;;5007500;28;20467;-87
2022/08/08 11:04:23;;;;;;;1.67;1.57;;;35.40;28.10;;;;;;5010996;28;20642;-88
2022/08/08 11:06:59;;;;;;;2.10;1.90;;;34.70;28.50;;;;;;4982265;28;20445;-87
2022/08/08 11:09:29;;;;;;;1.77;1.67;;;34.00;29.00;;;;;;5003694;28;20466;-87
2022/08/08 11:15:30;;;;;;;2.60;2.40;;;34.70;29.20;;;;;;5009501;28;20413;-87
2022/08/08 11:18:03;;;;;;;1.70;1.60;;;35.60;28.30;;;;;;4990627;28;20546;-86
2022/08/08 11:20:34;;;;;;;2.00;1.70;;;35.40;27.60;;;;;;4989981;28;20467;-86
2022/08/08 11:23:14;;;;;;;2.00;1.73;;;35.30;27.80;;;;;;4990659;28;20532;-86
2022/08/08 11:25:44;;;;;;;2.47;2.27;;;35.90;27.90;;;;;;4987510;28;20521;-86
2022/08/08 11:28:24;;;;;;;2.67;1.50;;;35.90;27.40;;;;;;5004636;28;20630;-86
2022/08/08 11:31:10;;;;;;;1.50;1.40;;;36.10;26.80;;;;;;5015631;28;20549;-86
2022/08/08 11:33:47;;;;;;;2.77;1.57;;;35.30;27.00;;;;;;4985891;28;20482;-86
2022/08/08 11:36:37;;;;;;;2.60;1.90;;;35.30;27.80;;;;;;4981508;28;20450;-87
2022/08/08 11:39:11;;;;;;;2.40;2.20;;;35.40;27.80;;;;;;4989760;28;20480;-86
2022/08/08 11:41:49;;;;;;;2.60;2.30;;;35.40;28.50;;;;;;5005896;28;20532;-87
2022/08/08 11:44:20;;;;;;;4.00;2.40;;;34.70;29.00;;;;;;4992383;28;20467;-91
2022/08/08 11:46:56;;;;;;;2.23;2.13;;;34.20;29.80;;;;;;4988840;28;21100;-86
2022/08/08 11:49:24;;;;;;;5.93;1.97;;;33.70;30.00;;;;;;4987473;28;20470;-87
2022/08/08 11:51:53;;;;;;;1.97;1.87;;;33.70;30.50;;;;;;4987014;28;20968;-86
2022/08/08 11:54:31;;;;;;;1.90;1.80;;;33.80;30.30;;;;;;4990209;28;20494;-87
2022/08/08 11:57:09;;;;;;;2.40;2.20;;;33.70;29.60;;;;;;4985212;28;20446;-87
2022/08/08 11:59:46;;;;;;;1.83;1.73;;;33.40;30.00;;;;;;4973872;28;20463;-87
2022/08/08 12:02:28;;;;;;;1.60;1.50;;;34.60;29.30;;;;;;4982271;28;20487;-87
2022/08/08 12:05:09;;;;;;;2.60;2.20;;;35.30;28.30;;;;;;5007819;28;20474;-87
2022/08/08 12:07:50;;;;;;;3.83;2.60;;;34.20;29.50;;;;;;4983659;28;20952;-90
2022/08/08 12:10:23;;;;;;;2.97;2.77;;;33.90;30.00;;;;;;5002339;28;21227;-86
2022/08/08 12:13:05;;;;;;;2.50;2.30;;;33.40;30.50;;;;;;4983535;28;20471;-87
2022/08/08 12:15:34;;;;;;;2.20;2.10;;;33.60;30.60;;;;;;4975504;28;20450;-86
2022/08/08 12:18:13;;;;;;;2.23;2.03;;;34.10;30.20;;;;;;4999898;28;20486;-87
2022/08/08 12:20:40;;;;;;;4.17;2.17;;;34.00;30.00;;;;;;4982797;28;20497;-85
2022/08/08 12:23:14;;;;;;;2.63;2.43;;;33.80;30.50;;;;;;4983079;28;20578;-86
2022/08/08 12:25:51;;;;;;;4.50;2.33;;;33.80;30.40;;;;;;4977815;28;20448;-87
2022/08/08 12:28:20;;;;;;;3.37;2.20;;;33.80;30.30;;;;;;4982223;28;20941;-86
2022/08/08 12:30:47;;;;;;;2.87;2.60;;;33.60;30.30;;;;;;5005691;28;20454;-88
2022/08/08 12:33:24;;;;;;;3.20;2.33;;;33.50;30.60;;;;;;4987018;28;20475;-87
2022/08/08 12:36:10;;;;;;;3.50;2.90;;;33.20;30.90;;;;;;4973607;28;20546;-87
2022/08/08 12:38:50;;;;;;;3.77;2.50;;;33.60;31.10;;;;;;4966397;28;20534;-87
2022/08/08 12:41:25;;;;;;;2.60;2.40;;;33.70;30.90;;;;;;4983908;28;20447;-86
2022/08/08 12:44:09;;;;;;;34.63;31.40;;;33.80;30.80;;;;;;4999824;28;20486;-88
2022/08/08 12:46:36;;;;;;;2.57;2.43;;;33.70;30.80;;;;;;5015627;28;20473;-91
2022/08/08 12:49:05;;;;;;;3.17;2.87;;;34.10;30.40;;;;;;5000598;28;20463;-90
2022/08/08 12:51:52;;;;;;;2.20;2.10;;;34.00;30.20;;;;;;5012732;28;20559;-91
2022/08/08 12:54:22;;;;;;;2.70;2.50;;;34.30;30.40;;;;;;5001796;28;20481;-90
2022/08/08 12:56:50;;;;;;;2.20;2.10;;;34.10;30.20;;;;;;5001841;28;20856;-90
2022/08/08 12:59:24;;;;;;;2.83;2.20;;;34.10;30.50;;;;;;5001233;28;20439;-90
2022/08/08 13:01:55;;;;;;;2.53;2.13;;;34.00;31.00;;;;;;5001726;28;20535;-89
2022/08/08 13:04:24;;;;;;;3.23;2.37;;;33.60;30.50;;;;;;5018571;28;20480;-88
2022/08/08 13:06:57;;;;;;;3.00;2.77;;;33.40;31.10;;;;;;5007197;28;20502;-88
2022/08/08 13:09:44;;;;;;;7.50;7.00;;;34.70;30.00;;;;;;5011221;28;20461;-86
2022/08/08 13:12:43;;;;;;;2.37;2.17;;;34.60;29.80;;;;;;5003198;28;20483;-87
2022/08/08 13:15:17;;;;;;;2.53;2.30;;;34.10;30.10;;;;;;5004871;28;20495;-87
2022/08/08 13:17:53;;;;;;;3.77;2.50;;;33.90;30.80;;;;;;4983408;28;20455;-91
2022/08/08 13:21:02;;;;;;;3.80;2.50;;;34.00;30.70;;;;;;4989116;28;20538;-86
2022/08/08 13:23:45;;;;;;;2.10;2.00;;;33.70;30.60;;;;;;4976582;28;20487;-87
2022/08/08 13:26:22;;;;;;;2.57;2.37;;;34.10;30.20;;;;;;4982770;28;20494;-87
2022/08/08 13:28:49;;;;;;;3.57;2.37;;;34.10;29.80;;;;;;4983769;28;20487;-86
2022/08/08 13:31:22;;;;;;;6.60;2.50;;;33.50;30.20;;;;;;4994428;28;20463;-86
2022/08/08 13:34:00;;;;;;;3.20;2.60;;;33.90;30.70;;;;;;4990515;28;20469;-87
2022/08/08 13:36:27;;;;;;;2.37;2.17;;;34.50;29.80;;;;;;4981171;28;21799;-87
2022/08/08 13:39:02;;;;;;;3.23;2.80;;;34.70;29.50;;;;;;4979557;28;20545;-87
2022/08/08 13:41:35;;;;;;;2.57;2.00;;;33.90;30.40;;;;;;4981644;28;20471;-86
2022/08/08 13:44:09;;;;;;;3.00;2.30;;;34.00;30.40;;;;;;4995480;28;20499;-86
2022/08/08 13:46:39;;;;;;;2.87;2.50;;;33.60;30.40;;;;;;4983022;28;20463;-87
2022/08/08 13:49:16;;;;;;;2.53;2.17;;;33.40;31.50;;;;;;4992687;28;20467;-86
2022/08/08 13:52:15;;;;;;;2.47;2.30;;;33.40;31.20;;;;;;4988193;28;20407;-88
2022/08/08 13:54:49;;;;;;;3.63;2.50;;;34.20;30.20;;;;;;4984704;28;20460;-86
2022/08/08 13:57:34;;;;;;;3.70;2.70;;;33.70;30.00;;;;;;4984834;28;20490;-88
2022/08/08 14:00:21;;;;;;;3.53;2.50;;;33.50;30.80;;;;;;4995631;28;20451;-88
2022/08/08 14:03:06;;;;;;;3.20;2.50;;;33.40;30.80;;;;;;4982912;28;20458;-87
2022/08/08 14:06:07;;;;;;;2.57;2.20;;;33.20;30.60;;;;;;4987511;28;20431;-87
2022/08/08 14:08:50;;;;;;;2.37;2.23;;;33.20;31.00;;;;;;4993622;28;20459;-87
2022/08/08 14:11:44;;;;;;;3.57;2.57;;;32.90;31.20;;;;;;4985137;28;20450;-89
2022/08/08 14:14:58;;;;;;;2.80;2.43;;;33.00;30.90;;;;;;4980343;28;20937;-87
2022/08/08 14:17:31;;;;;;;2.60;2.40;;;32.70;31.60;;;;;;4936610;28;20486;-87